Time;durP1;ratioP1;P1;durP2;ratioP2;P2;SDS_P1;SDS_P2;PMS_P1;PMS_P2;Temp;Humidity;BMP_temperature;BMP_pressure;BME280_temperature;BME280_humidity;BME280_pressure;Samples;Min_cycle;Max_cycle;Signal;HPM_P1;HPM_P2
2022/10/03 00:02:18;;;;;;;;;;;;;;;;;;4958515;28;19967;-93
2022/10/03 00:04:50;;;;;;;;;;;;;;;;;;4959002;28;20352;-92
2022/10/03 00:07:27;;;;;;;;;;;;;;;;;;4958834;28;20264;-92
2022/10/03 00:09:56;;;;;;;;;;;;;;;;;;4976055;28;19918;-92
2022/10/03 00:12:41;;;;;;;;;;;;;;;;;;4958507;28;19927;-93
2022/10/03 00:15:17;;;;;;;;;;;;;;;;;;4958965;28;19918;-92
2022/10/03 00:17:49;;;;;;;;;;;;;;;;;;4959188;28;20285;-93
2022/10/03 00:20:29;;;;;;;;;;;;;;;;;;4959105;28;19919;-93
2022/10/03 00:22:58;;;;;;;;;;;;;;;;;;4959152;28;20404;-92
2022/10/03 00:25:45;;;;;;;;;;;;;;;;;;4976991;28;19918;-93
2022/10/03 00:28:14;;;;;;;;;;;;;;;;;;4959422;28;19918;-93
2022/10/03 00:30:56;;;;;;;;;;;;;;;;;;4976452;28;20241;-93
2022/10/03 00:33:29;;;;;;;;;;;;;;;;;;4958652;28;20028;-93
2022/10/03 00:36:21;;;;;;;;;;;;;;;;;;4959386;28;19922;-93
2022/10/03 00:38:46;;;;;;;;;;;;;;;;;;4956187;28;19918;-93
2022/10/03 00:41:19;;;;;;;;;;;;;;;;;;4958148;28;20700;-94
2022/10/03 00:44:03;;;;;;;;;;;;;;;;;;4976745;28;19918;-94
2022/10/03 00:46:47;;;;;;;;;;;;;;;;;;4975869;28;19928;-93
2022/10/03 00:49:30;;;;;;;;;;;;;;;;;;4976708;28;19969;-93
2022/10/03 00:52:06;;;;;;;;;;;;;;;;;;4958753;28;19918;-92
2022/10/03 00:54:40;;;;;;;;;;;;;;;;;;4975370;28;20386;-92
2022/10/03 00:57:13;;;;;;;;;;;;;;;;;;4975537;28;19918;-92
2022/10/03 00:59:39;;;;;;;;;;;;;;;;;;4958157;28;20502;-93
2022/10/03 01:02:27;;;;;;;;;;;;;;;;;;4975202;28;19981;-93
2022/10/03 01:04:52;;;;;;;;;;;;;;;;;;4957792;28;19914;-93
2022/10/03 01:07:21;;;;;;;;;;;;;;;;;;4957756;28;19918;-92
2022/10/03 01:09:55;;;;;;;;;;;;;;;;;;4957931;28;19918;-92
2022/10/03 01:12:47;;;;;;;;;;;;;;;;;;4975110;28;19925;-92
2022/10/03 01:15:18;;;;;;;;;;;;;;;;;;4955734;28;19929;-91
2022/10/03 01:18:02;;;;;;;;;;;;;;;;;;4957655;28;19970;-91
2022/10/03 01:20:33;;;;;;;;;;;;;;;;;;4957675;28;19925;-91
2022/10/03 01:23:09;;;;;;;;;;;;;;;;;;4958103;28;19918;-92
2022/10/03 01:25:40;;;;;;;;;;;;;;;;;;4957420;28;19968;-91
2022/10/03 01:30:58;;;;;;;;;;;;;;;;;;4975197;28;19964;-93
2022/10/03 01:33:42;;;;;;;;;;;;;;;;;;4957744;28;19965;-94
2022/10/03 01:36:19;;;;;;;;;;;;;;;;;;4958518;28;20360;-93
2022/10/03 01:38:50;;;;;;;;;;;;;;;;;;4975538;28;19965;-93
2022/10/03 01:41:38;;;;;;;;;;;;;;;;;;4958064;28;20009;-92
2022/10/03 01:44:05;;;;;;;;;;;;;;;;;;4957570;28;19918;-93
2022/10/03 01:46:38;;;;;;;;;;;;;;;;;;4957340;28;19941;-92
2022/10/03 01:49:16;;;;;;;;;;;;;;;;;;4960787;28;19922;-93
2022/10/03 01:51:48;;;;;;;;;;;;;;;;;;4965137;28;19933;-92
2022/10/03 01:54:17;;;;;;;;;;;;;;;;;;4967827;28;19968;-93
2022/10/03 01:56:53;;;;;;;;;;;;;;;;;;4971429;28;19937;-93
2022/10/03 01:59:21;;;;;;;;;;;;;;;;;;4989280;28;19934;-93
2022/10/03 02:02:16;;;;;;;;;;;;;;;;;;4983667;28;20037;-92
2022/10/03 02:04:55;;;;;;;;;;;;;;;;;;4962389;28;19922;-92
2022/10/03 02:07:29;;;;;;;;;;;;;;;;;;4963337;28;20009;-91
2022/10/03 02:09:55;;;;;;;;;;;;;;;;;;4980069;28;20011;-92
2022/10/03 02:12:20;;;;;;;;;;;;;;;;;;4978707;28;19957;-92
2022/10/03 02:14:53;;;;;;;;;;;;;;;;;;4961232;28;19918;-91
2022/10/03 02:17:27;;;;;;;;;;;;;;;;;;4961449;28;19977;-93
2022/10/03 02:22:57;;;;;;;;;;;;;;;;;;4899819;29;19987;-93
2022/10/03 02:26:49;;;;;;;;;;;;;;;;;;5039668;27;19918;-93
2022/10/03 02:29:23;;;;;;;;;;;;;;;;;;5006528;28;19926;-91
2022/10/03 02:32:07;;;;;;;;;;;;;;;;;;5007910;28;19918;-92
2022/10/03 02:35:02;;;;;;;;;;;;;;;;;;5006358;28;20005;-92
2022/10/03 02:37:47;;;;;;;;;;;;;;;;;;5006559;28;19918;-91
2022/10/03 02:40:16;;;;;;;;;;;;;;;;;;5007084;28;19918;-91
2022/10/03 02:42:41;;;;;;;;;;;;;;;;;;5006809;28;20293;-92
2022/10/03 02:45:10;;;;;;;;;;;;;;;;;;5007713;28;19925;-92
2022/10/03 02:47:38;;;;;;;;;;;;;;;;;;5008160;28;19917;-92
2022/10/03 02:50:10;;;;;;;;;;;;;;;;;;5007421;28;19925;-91
2022/10/03 02:52:47;;;;;;;;;;;;;;;;;;5006422;28;19932;-93
2022/10/03 02:55:26;;;;;;;;;;;;;;;;;;5006851;28;19939;-91
2022/10/03 02:58:00;;;;;;;;;;;;;;;;;;5006787;28;19928;-93
2022/10/03 03:00:55;;;;;;;;;;;;;;;;;;5008084;28;20388;-91
2022/10/03 03:03:25;;;;;;;;;;;;;;;;;;4966405;28;19919;-92
2022/10/03 03:05:56;;;;;;;;;;;;;;;;;;4966762;28;20060;-92
2022/10/03 03:08:34;;;;;;;;;;;;;;;;;;4950630;28;19929;-93
2022/10/03 03:11:20;;;;;;;;;;;;;;;;;;4950478;28;19958;-91
2022/10/03 03:14:05;;;;;;;;;;;;;;;;;;4966370;28;19954;-92
2022/10/03 03:16:34;;;;;;;;;;;;;;;;;;4950353;28;19918;-92
2022/10/03 03:19:17;;;;;;;;;;;;;;;;;;4950620;28;19925;-92
2022/10/03 03:21:49;;;;;;;;;;;;;;;;;;4966712;28;19918;-92
2022/10/03 03:24:14;;;;;;;;;;;;;;;;;;4951479;28;19918;-92
2022/10/03 03:26:39;;;;;;;;;;;;;;;;;;4952849;28;19951;-91
2022/10/03 03:29:21;;;;;;;;;;;;;;;;;;4961062;28;19910;-91
2022/10/03 03:31:55;;;;;;;;;;;;;;;;;;4977063;28;19930;-92
2022/10/03 03:34:43;;;;;;;;;;;;;;;;;;4970177;28;19923;-91
2022/10/03 03:37:31;;;;;;;;;;;;;;;;;;4934977;28;19918;-92
2022/10/03 03:40:12;;;;;;;;;;;;;;;;;;4955418;28;20135;-91
2022/10/03 03:42:59;;;;;;;;;;;;;;;;;;4975289;28;19926;-92
2022/10/03 03:45:39;;;;;;;;;;;;;;;;;;4992526;28;19930;-90
2022/10/03 03:48:05;;;;;;;;;;;;;;;;;;4992711;28;19933;-92
2022/10/03 03:50:44;;;;;;;;;;;;;;;;;;4992469;28;19922;-91
2022/10/03 03:53:28;;;;;;;;;;;;;;;;;;4991837;28;19925;-92
2022/10/03 03:55:55;;;;;;;;;;;;;;;;;;4985661;28;19980;-89
2022/10/03 03:58:46;;;;;;;;;;;;;;;;;;4973345;28;19925;-89
2022/10/03 04:01:12;;;;;;;;;;;;;;;;;;4973447;28;19919;-91
2022/10/03 04:03:57;;;;;;;;;;;;;;;;;;4978546;28;19975;-91
2022/10/03 04:06:35;;;;;;;;;;;;;;;;;;5025340;27;20254;-91
2022/10/03 04:09:18;;;;;;;;;;;;;;;;;;4995548;28;20034;-92
2022/10/03 04:11:52;;;;;;;;;;;;;;;;;;4972523;28;19918;-92
2022/10/03 04:14:27;;;;;;;;;;;;;;;;;;4972777;28;19922;-92
2022/10/03 04:20:01;;;;;;;;;;;;;;;;;;4995756;28;19940;-92
2022/10/03 04:22:28;;;;;;;;;;;;;;;;;;4993531;28;19939;-92
2022/10/03 04:24:56;;;;;;;;;;;;;;;;;;4988119;28;19948;-93
2022/10/03 04:27:36;;;;;;;;;;;;;;;;;;4973663;28;19918;-93
2022/10/03 04:30:16;;;;;;;;;;;;;;;;;;4973064;28;19971;-92
2022/10/03 04:32:48;;;;;;;;;;;;;;;;;;4973232;28;19918;-91
2022/10/03 04:35:19;;;;;;;;;;;;;;;;;;4972294;28;20022;-93
2022/10/03 04:38:04;;;;;;;;;;;;;;;;;;4973590;28;19918;-92
2022/10/03 04:40:40;;;;;;;;;;;;;;;;;;4972944;28;19922;-92
2022/10/03 04:43:17;;;;;;;;;;;;;;;;;;4973163;28;19976;-90
2022/10/03 04:45:56;;;;;;;;;;;;;;;;;;4972460;28;19919;-92
2022/10/03 04:48:27;;;;;;;;;;;;;;;;;;4971181;28;20293;-93
2022/10/03 04:51:07;;;;;;;;;;;;;;;;;;4984046;28;19921;-91
2022/10/03 04:53:42;;;;;;;;;;;;;;;;;;4991645;28;20352;-92
2022/10/03 04:56:30;;;;;;;;;;;;;;;;;;4994487;28;19913;-92
2022/10/03 04:59:03;;;;;;;;;;;;;;;;;;4987628;28;19977;-92
2022/10/03 05:01:32;;;;;;;;;;;;;;;;;;4992502;28;19925;-94
2022/10/03 05:04:09;;;;;;;;;;;;;;;;;;4992024;28;19966;-92
2022/10/03 05:06:35;;;;;;;;;;;;;;;;;;4992225;28;19922;-93
2022/10/03 05:09:12;;;;;;;;;;;;;;;;;;4991365;28;19929;-93
2022/10/03 05:11:53;;;;;;;;;;;;;;;;;;4992101;28;19929;-92
2022/10/03 05:14:19;;;;;;;;;;;;;;;;;;4992305;28;20030;-93
2022/10/03 05:17:10;;;;;;;;;;;;;;;;;;4979738;28;20038;-94
2022/10/03 05:19:35;;;;;;;;;;;;;;;;;;4976354;28;19918;-91
2022/10/03 05:25:18;;;;;;;;;;;;;;;;;;4976435;28;19969;-93
2022/10/03 05:28:02;;;;;;;;;;;;;;;;;;4972067;28;19918;-93
2022/10/03 05:30:43;;;;;;;;;;;;;;;;;;5009194;23;20380;-94
2022/10/03 05:33:14;;;;;;;;;;;;;;;;;;5043965;22;19926;-94
2022/10/03 05:35:39;;;;;;;;;;;;;;;;;;4952372;29;19922;-92
2022/10/03 05:38:05;;;;;;;;;;;;;;;;;;5036560;28;19918;-90
2022/10/03 05:40:33;;;;;;;;;;;;;;;;;;5035893;28;19985;-91
2022/10/03 05:46:19;;;;;;;;;;;;;;;;;;;;;
2022/10/03 05:48:48;;;;;;;;;;;;;;;;;;5098447;28;20356;-93
2022/10/03 05:51:19;;;;;;;;;;;;;;;;;;5096489;28;19958;-92
2022/10/03 05:54:06;;;;;;;;;;;;;;;;;;5097124;28;19922;-92
2022/10/03 05:56:49;;;;;;;;;;;;;;;;;;5094495;28;19923;-93
2022/10/03 05:59:24;;;;;;;;;;;;;;;;;;5076438;28;20303;-93
2022/10/03 06:01:59;;;;;;;;;;;;;;;;;;5076186;28;20286;-94
2022/10/03 06:04:37;;;;;;;;;;;;;;;;;;5075621;28;20458;-91
2022/10/03 06:07:32;;;;;;;;;;;;;;;;;;5094031;28;19917;-92
2022/10/03 06:10:03;;;;;;;;;;;;;;;;;;5076488;28;19916;-91
2022/10/03 06:12:32;;;;;;;;;;;;;;;;;;5075919;28;20360;-93
2022/10/03 06:15:06;;;;;;;;;;;;;;;;;;5075291;28;19916;-93
2022/10/03 06:17:41;;;;;;;;;;;;;;;;;;5075841;28;19916;-93
2022/10/03 06:20:15;;;;;;;;;;;;;;;;;;5093731;28;20359;-93
2022/10/03 06:22:56;;;;;;;;;;;;;;;;;;5095563;28;19924;-91
2022/10/03 06:25:25;;;;;;;;;;;;;;;;;;5095865;28;19916;-92
2022/10/03 06:27:50;;;;;;;;;;;;;;;;;;5095744;28;19965;-91
2022/10/03 06:30:34;;;;;;;;;;;;;;;;;;5089631;28;20353;-90
2022/10/03 06:33:14;;;;;;;;;;;;;;;;;;5075357;28;19922;-90
2022/10/03 06:35:43;;;;;;;;;;;;;;;;;;5093105;28;19931;-90
2022/10/03 06:38:08;;;;;;;;;;;;;;;;;;5075158;28;20291;-93
2022/10/03 06:40:47;;;;;;;;;;;;;;;;;;5075256;28;19923;-90
2022/10/03 06:43:31;;;;;;;;;;;;;;;;;;5075264;28;19924;-91
2022/10/03 06:46:12;;;;;;;;;;;;;;;;;;5074856;28;19927;-92
2022/10/03 06:48:57;;;;;;;;;;;;;;;;;;5093165;28;19920;-92
2022/10/03 06:51:28;;;;;;;;;;;;;;;;;;5075462;28;20279;-91
2022/10/03 06:54:10;;;;;;;;;;;;;;;;;;5093236;28;19920;-92
2022/10/03 06:56:47;;;;;;;;;;;;;;;;;;5075174;28;19916;-92
2022/10/03 06:59:25;;;;;;;;;;;;;;;;;;5075056;28;19920;-91
2022/10/03 07:01:51;;;;;;;;;;;;;;;;;;5075034;28;19961;-93
2022/10/03 07:04:23;;;;;;;;;;;;;;;;;;5075256;28;20388;-93
2022/10/03 07:07:07;;;;;;;;;;;;;;;;;;5075345;28;20015;-92
2022/10/03 07:09:48;;;;;;;;;;;;;;;;;;5074962;28;19931;-91
2022/10/03 07:12:32;;;;;;;;;;;;;;;;;;5076730;28;19974;-91
2022/10/03 07:15:07;;;;;;;;;;;;;;;;;;5096751;28;19916;-92
2022/10/03 07:17:48;;;;;;;;;;;;;;;;;;5078953;28;19916;-90
2022/10/03 07:20:32;;;;;;;;;;;;;;;;;;5079644;28;19973;-92
2022/10/03 07:22:57;;;;;;;;;;;;;;;;;;5079612;28;19921;-92
2022/10/03 07:25:36;;;;;;;;;;;;;;;;;;5080064;28;19916;-91
2022/10/03 07:28:10;;;;;;;;;;;;;;;;;;5112969;28;19920;-92
2022/10/03 07:30:50;;;;;;;;;;;;;;;;;;5087640;28;19928;-92
2022/10/03 07:33:25;;;;;;;;;;;;;;;;;;5121160;28;20027;-93
2022/10/03 07:39:09;;;;;;;;;;;;;;;;;;5121506;27;19946;-93
2022/10/03 07:41:53;;;;;;;;;;;;;;;;;;5101650;28;19963;-92
2022/10/03 07:44:39;;;;;;;;;;;;;;;;;;5118791;28;19934;-93
2022/10/03 07:47:26;;;;;;;;;;;;;;;;;;5081157;28;20390;-94
2022/10/03 07:50:02;;;;;;;;;;;;;;;;;;5109994;28;19920;-92
2022/10/03 07:52:42;;;;;;;;;;;;;;;;;;5097785;28;19977;-92
2022/10/03 07:55:20;;;;;;;;;;;;;;;;;;5077848;28;20394;-94
2022/10/03 07:58:02;;;;;;;;;;;;;;;;;;5068912;28;19916;-92
2022/10/03 08:00:28;;;;;;;;;;;;;;;;;;5068784;28;20256;-91
2022/10/03 08:02:54;;;;;;;;;;;;;;;;;;5090426;28;20038;-93
2022/10/03 08:05:24;;;;;;;;;;;;;;;;;;5069667;28;19973;-92
2022/10/03 08:08:08;;;;;;;;;;;;;;;;;;5083413;28;19924;-94
2022/10/03 08:10:36;;;;;;;;;;;;;;;;;;5096162;28;20057;-91
2022/10/03 08:13:10;;;;;;;;;;;;;;;;;;5078257;28;19916;-93
2022/10/03 08:15:41;;;;;;;;;;;;;;;;;;5077605;28;19916;-92
2022/10/03 08:18:25;;;;;;;;;;;;;;;;;;5096133;28;19979;-92
2022/10/03 08:20:57;;;;;;;;;;;;;;;;;;5096050;28;19935;-92
2022/10/03 08:23:41;;;;;;;;;;;;;;;;;;5077490;28;20041;-91
2022/10/03 08:26:32;;;;;;;;;;;;;;;;;;5078574;28;20379;-94
2022/10/03 08:29:10;;;;;;;;;;;;;;;;;;5078213;28;19935;-92
2022/10/03 08:31:51;;;;;;;;;;;;;;;;;;5077706;28;19999;-93
2022/10/03 08:34:19;;;;;;;;;;;;;;;;;;5095930;28;20416;-93
2022/10/03 08:36:57;;;;;;;;;;;;;;;;;;5095322;28;20022;-93
2022/10/03 08:39:29;;;;;;;;;;;;;;;;;;5078268;28;20011;-91
2022/10/03 08:42:13;;;;;;;;;;;;;;;;;;5078497;28;19924;-92
2022/10/03 08:44:39;;;;;;;;;;;;;;;;;;5077644;28;19916;-93
2022/10/03 08:47:24;;;;;;;;;;;;;;;;;;5077273;28;19940;-94
2022/10/03 08:50:02;;;;;;;;;;;;;;;;;;5077809;28;19916;-92
2022/10/03 08:52:47;;;;;;;;;;;;;;;;;;5095818;28;19947;-92
2022/10/03 08:55:31;;;;;;;;;;;;;;;;;;5076768;28;19922;-91
2022/10/03 08:58:15;;;;;;;;;;;;;;;;;;5076678;28;20007;-93
2022/10/03 09:00:51;;;;;;;;;;;;;;;;;;5057499;28;19924;-92
2022/10/03 09:03:35;;;;;;;;;;;;;;;;;;5057735;28;19912;-92
2022/10/03 09:06:23;;;;;;;;;;;;;;;;;;5057038;28;20372;-92
2022/10/03 09:09:00;;;;;;;;;;;;;;;;;;5075122;28;19940;-91
2022/10/03 09:11:48;;;;;;;;;;;;;;;;;;5057066;28;20291;-91
2022/10/03 09:14:29;;;;;;;;;;;;;;;;;;5056712;28;20011;-91
2022/10/03 09:16:54;;;;;;;;;;;;;;;;;;5056160;28;19924;-92
2022/10/03 09:19:39;;;;;;;;;;;;;;;;;;5056933;28;19949;-94
2022/10/03 09:22:23;;;;;;;;;;;;;;;;;;5056531;28;19927;-92
2022/10/03 09:24:57;;;;;;;;;;;;;;;;;;5056414;28;19923;-92
2022/10/03 09:27:34;;;;;;;;;;;;;;;;;;5056598;28;20441;-93
2022/10/03 09:29:59;;;;;;;;;;;;;;;;;;5056573;28;19986;-92
2022/10/03 09:32:42;;;;;;;;;;;;;;;;;;5056643;28;20363;-93
2022/10/03 09:35:27;;;;;;;;;;;;;;;;;;5072543;28;19963;-92
2022/10/03 09:38:11;;;;;;;;;;;;;;;;;;5056638;28;19954;-91
2022/10/03 09:40:56;;;;;;;;;;;;;;;;;;5056695;28;19917;-93
2022/10/03 09:43:30;;;;;;;;;;;;;;;;;;5056863;28;19980;-93
2022/10/03 09:46:08;;;;;;;;;;;;;;;;;;5056475;28;19971;-93
2022/10/03 09:48:34;;;;;;;;;;;;;;;;;;5056464;28;20027;-92
2022/10/03 09:51:13;;;;;;;;;;;;;;;;;;5073403;28;19943;-88
2022/10/03 09:54:04;;;;;;;;;;;;;;;;;;5073711;28;19924;-88
2022/10/03 09:56:48;;;;;;;;;;;;;;;;;;5073066;28;20054;-87
2022/10/03 09:59:14;;;;;;;;;;;;;;;;;;5073070;28;19928;-88
2022/10/03 10:01:39;;;;;;;;;;;;;;;;;;5073072;28;20264;-87
2022/10/03 10:04:04;;;;;;;;;;;;;;;;;;5073541;28;19920;-88
2022/10/03 10:06:48;;;;;;;;;;;;;;;;;;5075606;28;19963;-88
2022/10/03 10:09:20;;;;;;;;;;;;;;;;;;5073786;28;19916;-89
2022/10/03 10:12:04;;;;;;;;;;;;;;;;;;5073603;28;19920;-90
2022/10/03 10:14:58;;;;;;;;;;;;;;;;;;5073723;28;20009;-92
2022/10/03 10:17:43;;;;;;;;;;;;;;;;;;5055865;28;19920;-90
2022/10/03 10:20:35;;;;;;;;;;;;;;;;;;5055054;28;19940;-89
2022/10/03 10:23:09;;;;;;;;;;;;;;;;;;5051121;28;20368;-88
2022/10/03 10:25:44;;;;;;;;;;;;;;;;;;5072095;28;19917;-89
2022/10/03 10:28:23;;;;;;;;;;;;;;;;;;5055307;28;19916;-87
2022/10/03 10:30:55;;;;;;;;;;;;;;;;;;5055078;28;19928;-91
2022/10/03 10:33:39;;;;;;;;;;;;;;;;;;5073220;28;19917;-88
2022/10/03 10:36:34;;;;;;;;;;;;;;;;;;5056323;28;19920;-90
2022/10/03 10:39:02;;;;;;;;;;;;;;;;;;5074014;28;19916;-89
2022/10/03 10:41:46;;;;;;;;;;;;;;;;;;5072840;28;20372;-89
2022/10/03 10:44:26;;;;;;;;;;;;;;;;;;5074548;28;20012;-89
2022/10/03 10:47:12;;;;;;;;;;;;;;;;;;5077800;28;20448;-89
2022/10/03 10:50:00;;;;;;;;;;;;;;;;;;5097460;28;19924;-88
2022/10/03 10:52:45;;;;;;;;;;;;;;;;;;5060159;28;20442;-89
2022/10/03 10:55:29;;;;;;;;;;;;;;;;;;5096943;28;19946;-88
2022/10/03 10:58:13;;;;;;;;;;;;;;;;;;5080619;28;19973;-89
2022/10/03 11:00:38;;;;;;;;;;;;;;;;;;5100525;28;19927;-88
2022/10/03 11:03:19;;;;;;;;;;;;;;;;;;5097317;28;19916;-87
2022/10/03 11:06:03;;;;;;;;;;;;;;;;;;5096550;28;19920;-89
2022/10/03 11:08:29;;;;;;;;;;;;;;;;;;5078945;28;20026;-89
2022/10/03 11:11:31;;;;;;;;;;;;;;;;;;5096733;28;19951;-88
2022/10/03 11:14:15;;;;;;;;;;;;;;;;;;5099657;28;19923;-88
2022/10/03 11:16:59;;;;;;;;;;;;;;;;;;5095702;28;20370;-87
2022/10/03 11:19:42;;;;;;;;;;;;;;;;;;5081047;28;19924;-91
2022/10/03 11:22:26;;;;;;;;;;;;;;;;;;5093895;28;19950;-88
2022/10/03 11:24:57;;;;;;;;;;;;;;;;;;5088515;28;19920;-88
2022/10/03 11:27:41;;;;;;;;;;;;;;;;;;5100564;28;19920;-87
2022/10/03 11:30:38;;;;;;;;;;;;;;;;;;5103881;28;19916;-87
2022/10/03 11:33:16;;;;;;;;;;;;;;;;;;5104755;28;19931;-86
2022/10/03 11:35:45;;;;;;;;;;;;;;;;;;5109321;28;19924;-87
2022/10/03 11:38:13;;;;;;;;;;;;;;;;;;5108299;28;19938;-86
2022/10/03 11:40:51;;;;;;;;;;;;;;;;;;5104095;28;19912;-86
2022/10/03 11:43:32;;;;;;;;;;;;;;;;;;5102680;28;19920;-84
2022/10/03 11:46:16;;;;;;;;;;;;;;;;;;5101424;28;20264;-85
2022/10/03 11:48:56;;;;;;;;;;;;;;;;;;5098676;28;19920;-86
2022/10/03 11:51:45;;;;;;;;;;;;;;;;;;5082307;28;19916;-86
2022/10/03 11:54:26;;;;;;;;;;;;;;;;;;5063372;28;19916;-87
2022/10/03 11:57:25;;;;;;;;;;;;;;;;;;5095971;28;19916;-85
2022/10/03 11:59:59;;;;;;;;;;;;;;;;;;4992865;28;19921;-86
2022/10/03 12:10:50;;;;;;;;;;;;;;;;;;5377865;23;19924;-86
2022/10/03 12:13:48;;;;;;;;;;;;;;;;;;5090473;28;19925;-87
2022/10/03 12:39:53;;;;;;;;;;;;;;;;;;6056700;23;19920;-87
2022/10/03 12:45:38;;;;;;;;;;;;;;;;;;5002856;28;19967;-86
2022/10/03 15:35:23;;;;;;;;;;;;;;;;;;5021201;23;19955;-89
2022/10/03 15:37:51;;;;;;;;;;;;;;;;;;4934030;29;19923;-87
2022/10/03 15:40:21;;;;;;;;;;;;;;;;;;4919707;29;19911;-87
2022/10/03 15:42:52;;;;;;;;;;;;;;;;;;4919345;29;19919;-89
2022/10/03 15:45:28;;;;;;;;;;;;;;;;;;4918724;29;19919;-87
2022/10/03 15:47:55;;;;;;;;;;;;;;;;;;4918740;29;19933;-86
2022/10/03 15:50:21;;;;;;;;;;;;;;;;;;4918525;29;19915;-86
2022/10/03 15:52:51;;;;;;;;;;;;;;;;;;4918853;29;20303;-87
2022/10/03 15:55:31;;;;;;;;;;;;;;;;;;4920984;29;20287;-87
2022/10/03 15:58:07;;;;;;;;;;;;;;;;;;4916064;29;19919;-86
2022/10/03 16:00:34;;;;;;;;;;;;;;;;;;4918027;29;19930;-86
2022/10/03 16:03:14;;;;;;;;;;;;;;;;;;4917950;29;20020;-88
2022/10/03 16:06:01;;;;;;;;;;;;;;;;;;4916752;29;20302;-89
2022/10/03 16:08:29;;;;;;;;;;;;;;;;;;4917845;29;19923;-87
2022/10/03 16:11:16;;;;;;;;;;;;;;;;;;4917956;29;19919;-88
2022/10/03 16:13:50;;;;;;;;;;;;;;;;;;4917013;29;19934;-86
2022/10/03 16:16:46;;;;;;;;;;;;;;;;;;4915860;29;19923;-85
2022/10/03 16:19:15;;;;;;;;;;;;;;;;;;4897411;29;19919;-88
2022/10/03 16:21:43;;;;;;;;;;;;;;;;;;4917631;29;19923;-85
2022/10/03 16:24:16;;;;;;;;;;;;;;;;;;4915690;29;19923;-84
2022/10/03 16:26:54;;;;;;;;;;;;;;;;;;4917517;29;20276;-86
2022/10/03 16:29:32;;;;;;;;;;;;;;;;;;4898407;29;20391;-88
2022/10/03 16:32:01;;;;;;;;;;;;;;;;;;4913730;29;19926;-90
2022/10/03 16:34:29;;;;;;;;;;;;;;;;;;4900643;29;19934;-90
2022/10/03 16:36:56;;;;;;;;;;;;;;;;;;4899422;29;19919;-90
2022/10/03 16:39:33;;;;;;;;;;;;;;;;;;4914521;29;20355;-92
2022/10/03 16:41:59;;;;;;;;;;;;;;;;;;4900792;29;19920;-91
2022/10/03 16:44:25;;;;;;;;;;;;;;;;;;4900773;29;20018;-91
2022/10/03 16:46:52;;;;;;;;;;;;;;;;;;4900526;29;20019;-93
2022/10/03 16:52:17;;;;;;;;;;;;;;;;;;4900830;29;19944;-92
2022/10/03 16:54:43;;;;;;;;;;;;;;;;;;4899011;29;20343;-90
2022/10/03 16:57:18;;;;;;;;;;;;;;;;;;4899751;29;19919;-87
2022/10/03 16:59:46;;;;;;;;;;;;;;;;;;4900026;29;19946;-88
2022/10/03 17:02:13;;;;;;;;;;;;;;;;;;4901390;29;19919;-85
2022/10/03 17:04:40;;;;;;;;;;;;;;;;;;4901492;29;20288;-86
2022/10/03 17:07:12;;;;;;;;;;;;;;;;;;4900334;29;19975;-87
2022/10/03 17:09:40;;;;;;;;;;;;;;;;;;4901866;29;19973;-86
2022/10/03 17:12:11;;;;;;;;;;;;;;;;;;4902769;29;19926;-86
2022/10/03 17:14:38;;;;;;;;;;;;;;;;;;4902752;29;20376;-85
2022/10/03 17:17:12;;;;;;;;;;;;;;;;;;4902712;29;19920;-87
2022/10/03 17:19:46;;;;;;;;;;;;;;;;;;4902652;29;19919;-86
2022/10/03 17:22:18;;;;;;;;;;;;;;;;;;4901094;29;20295;-86
2022/10/03 17:25:02;;;;;;;;;;;;;;;;;;4902162;29;19927;-87
2022/10/03 17:27:30;;;;;;;;;;;;;;;;;;4917632;29;19922;-86
2022/10/03 17:30:04;;;;;;;;;;;;;;;;;;4916804;29;19967;-87
2022/10/03 17:32:35;;;;;;;;;;;;;;;;;;4917678;29;19930;-85
2022/10/03 17:35:19;;;;;;;;;;;;;;;;;;4901583;29;19964;-86
2022/10/03 17:38:02;;;;;;;;;;;;;;;;;;4922537;29;20427;-86
2022/10/03 17:40:46;;;;;;;;;;;;;;;;;;4920532;29;19926;-85
2022/10/03 17:43:30;;;;;;;;;;;;;;;;;;4902777;29;19923;-90
2022/10/03 17:46:18;;;;;;;;;;;;;;;;;;4902454;29;20372;-85
2022/10/03 17:48:59;;;;;;;;;;;;;;;;;;4899211;29;19927;-84
2022/10/03 17:51:30;;;;;;;;;;;;;;;;;;4902005;29;19967;-87
2022/10/03 17:53:57;;;;;;;;;;;;;;;;;;4916331;29;20383;-85
2022/10/03 17:56:24;;;;;;;;;;;;;;;;;;4900362;29;19919;-86
2022/10/03 17:59:10;;;;;;;;;;;;;;;;;;4900708;29;19935;-84
2022/10/03 18:01:38;;;;;;;;;;;;;;;;;;4915512;29;19920;-86
2022/10/03 18:04:05;;;;;;;;;;;;;;;;;;4902240;29;19930;-88
2022/10/03 18:06:37;;;;;;;;;;;;;;;;;;4903119;29;19924;-88
2022/10/03 18:09:21;;;;;;;;;;;;;;;;;;4916329;29;19959;-85
2022/10/03 18:15:09;;;;;;;;;;;;;;;;;;5089376;27;19974;-86
2022/10/03 18:17:53;;;;;;;;;;;;;;;;;;5089463;28;20563;-86
2022/10/03 18:20:27;;;;;;;;;;;;;;;;;;5088662;28;20397;-88
2022/10/03 18:22:58;;;;;;;;;;;;;;;;;;5102671;28;19920;-87
2022/10/03 18:34:14;;;;;;;;;;;;;;;;;;5147428;23;19935;-89
2022/10/03 18:36:45;;;;;;;;;;;;;;;;;;5078514;28;19924;-93
2022/10/03 18:39:16;;;;;;;;;;;;;;;;;;5094503;28;19939;-91
2022/10/03 18:41:49;;;;;;;;;;;;;;;;;;5093447;28;20390;-92
2022/10/03 18:44:17;;;;;;;;;;;;;;;;;;5090398;28;19993;-93
2022/10/03 18:46:46;;;;;;;;;;;;;;;;;;5091140;28;19917;-92
2022/10/03 18:49:17;;;;;;;;;;;;;;;;;;5107828;22;20368;-93
2022/10/03 18:51:51;;;;;;;;;;;;;;;;;;5073480;28;19920;-87
2022/10/03 18:54:16;;;;;;;;;;;;;;;;;;5090799;28;19931;-91
2022/10/03 18:56:44;;;;;;;;;;;;;;;;;;5072965;28;20375;-90
2022/10/03 18:59:21;;;;;;;;;;;;;;;;;;5092314;28;19923;-90
2022/10/03 19:01:51;;;;;;;;;;;;;;;;;;5092578;28;19924;-88
2022/10/03 19:04:23;;;;;;;;;;;;;;;;;;5077500;28;20315;-86
2022/10/03 19:06:50;;;;;;;;;;;;;;;;;;5073590;28;19923;-86
2022/10/03 19:09:26;;;;;;;;;;;;;;;;;;5090325;28;19918;-88
2022/10/03 19:11:55;;;;;;;;;;;;;;;;;;5094090;28;19924;-87
2022/10/03 19:14:29;;;;;;;;;;;;;;;;;;5089539;28;19916;-94
2022/10/03 19:16:58;;;;;;;;;;;;;;;;;;5072964;28;19916;-88
2022/10/03 19:19:43;;;;;;;;;;;;;;;;;;5084330;28;19947;-91
2022/10/03 19:22:11;;;;;;;;;;;;;;;;;;5097757;28;19927;-91
2022/10/03 19:24:37;;;;;;;;;;;;;;;;;;5091734;28;19920;-88
2022/10/03 19:27:05;;;;;;;;;;;;;;;;;;5058181;28;19935;-86
2022/10/03 19:29:37;;;;;;;;;;;;;;;;;;5058631;28;19970;-87
2022/10/03 19:32:05;;;;;;;;;;;;;;;;;;5074701;28;19916;-86
2022/10/03 19:34:38;;;;;;;;;;;;;;;;;;5057708;28;20383;-87
2022/10/03 19:37:15;;;;;;;;;;;;;;;;;;5057592;28;19947;-87
2022/10/03 19:39:41;;;;;;;;;;;;;;;;;;5057815;28;19917;-86
2022/10/03 19:42:25;;;;;;;;;;;;;;;;;;5075165;28;20285;-85
2022/10/03 19:44:54;;;;;;;;;;;;;;;;;;5074629;28;20351;-88
2022/10/03 19:47:34;;;;;;;;;;;;;;;;;;5077403;28;19974;-89
2022/10/03 19:50:19;;;;;;;;;;;;;;;;;;5058013;28;19924;-89
2022/10/03 19:52:44;;;;;;;;;;;;;;;;;;5073606;28;20008;-89
2022/10/03 19:55:16;;;;;;;;;;;;;;;;;;5069225;28;20027;-87
2022/10/03 19:57:50;;;;;;;;;;;;;;;;;;5073970;28;20372;-86
2022/10/03 20:00:16;;;;;;;;;;;;;;;;;;5072558;28;20324;-92
